createdAt,value
2023-02-13T00:01:11.404Z,7.50
2023-02-13T00:03:38.236Z,7.50
2023-02-13T00:06:05.067Z,7.50
2023-02-13T00:08:31.804Z,7.50
2023-02-13T00:10:58.911Z,7.40
2023-02-13T00:13:25.814Z,7.40
2023-02-13T00:15:59.762Z,7.40
2023-02-13T00:18:26.831Z,7.40
2023-02-13T00:21:00.566Z,7.30
2023-02-13T00:23:27.358Z,7.40
2023-02-13T00:25:54.035Z,7.40
2023-02-13T00:28:20.751Z,7.40
2023-02-13T00:30:47.583Z,7.30
2023-02-13T00:33:14.366Z,7.40
2023-02-13T00:35:41.061Z,7.40
2023-02-13T00:38:07.722Z,7.30
2023-02-13T00:40:34.492Z,7.30
2023-02-13T00:43:01.183Z,7.30
2023-02-13T00:45:27.841Z,7.30
2023-02-13T00:47:54.530Z,7.40
2023-02-13T00:50:21.198Z,7.30
2023-02-13T00:52:47.875Z,7.40
2023-02-13T00:55:14.576Z,7.40
2023-02-13T00:57:41.242Z,7.30
2023-02-13T01:00:08.565Z,7.30
2023-02-13T01:02:36.177Z,7.30
2023-02-13T01:05:03.237Z,7.30
2023-02-13T01:07:29.942Z,7.20
2023-02-13T01:09:56.662Z,7.20
2023-02-13T01:12:23.338Z,7.10
2023-02-13T01:14:50.093Z,7.20
2023-02-13T01:17:16.798Z,7.20
2023-02-13T01:19:43.489Z,7.20
2023-02-13T01:22:10.189Z,7.30
2023-02-13T01:24:36.914Z,7.30
2023-02-13T01:27:03.690Z,7.30
2023-02-13T01:29:30.402Z,7.30
2023-02-13T01:31:57.174Z,7.30
2023-02-13T01:34:23.968Z,7.30
2023-02-13T01:36:50.684Z,7.20
2023-02-13T01:39:17.327Z,7.20
2023-02-13T01:41:44.021Z,7.30
2023-02-13T01:44:48.915Z,7.30
2023-02-13T01:47:45.606Z,7.30
2023-02-13T01:50:24.258Z,7.30
2023-02-13T01:53:15.575Z,7.30
2023-02-13T01:56:15.677Z,7.30
2023-02-13T01:58:43.251Z,7.30
2023-02-13T02:01:09.998Z,7.30
2023-02-13T02:04:00.934Z,7.30
2023-02-13T02:06:29.876Z,7.30
2023-02-13T02:08:58.788Z,7.30
2023-02-13T02:11:37.159Z,7.30
2023-02-13T02:14:03.962Z,7.20
2023-02-13T02:16:30.614Z,7.30
2023-02-13T02:18:57.356Z,7.30
2023-02-13T02:21:44.174Z,7.30
2023-02-13T02:24:37.655Z,7.30
2023-02-13T02:27:47.163Z,7.30
2023-02-13T02:30:58.771Z,7.20
2023-02-13T02:33:34.434Z,7.10
2023-02-13T02:36:36.704Z,7.10
2023-02-13T02:39:06.078Z,7.10
2023-02-13T02:41:42.679Z,7.10
2023-02-13T02:44:21.815Z,7.00
2023-02-13T02:47:27.595Z,7.00
2023-02-13T02:50:20.483Z,7.00
2023-02-13T02:53:06.592Z,7.00
2023-02-13T02:56:00.923Z,6.90
2023-02-13T02:58:54.785Z,6.80
2023-02-13T03:01:58.435Z,6.80
2023-02-13T03:04:51.530Z,6.70
2023-02-13T03:07:19.067Z,6.60
2023-02-13T03:10:18.614Z,6.50
2023-02-13T03:13:10.470Z,6.40
2023-02-13T03:15:59.049Z,6.30
2023-02-13T03:18:44.310Z,6.20
2023-02-13T03:21:36.254Z,6.20
2023-02-13T03:24:53.242Z,6.20
2023-02-13T03:28:03.582Z,6.10
2023-02-13T03:30:45.075Z,6.00
2023-02-13T03:33:14.666Z,5.90
2023-02-13T03:36:29.287Z,5.90
2023-02-13T03:39:09.428Z,5.80
2023-02-13T03:41:41.973Z,5.70
2023-02-13T03:44:18.600Z,5.70
2023-02-13T03:46:47.667Z,5.60
2023-02-13T03:50:00.487Z,5.50
2023-02-13T03:52:42.731Z,5.50
2023-02-13T03:55:31.900Z,5.40
2023-02-13T03:58:20.940Z,5.40
2023-02-13T04:00:51.271Z,5.40
2023-02-13T04:03:47.286Z,5.30
2023-02-13T04:06:19.777Z,5.30
2023-02-13T04:08:46.486Z,5.20
2023-02-13T04:11:22.148Z,5.20
2023-02-13T04:13:52.621Z,5.10
2023-02-13T04:16:30.082Z,5.10
2023-02-13T04:18:56.812Z,5.10
2023-02-13T04:21:23.570Z,5.10
2023-02-13T04:23:50.224Z,5.10
2023-02-13T04:26:18.376Z,5.00
2023-02-13T04:28:45.064Z,5.10
2023-02-13T04:31:11.869Z,5.00
2023-02-13T04:33:38.683Z,5.00
2023-02-13T04:36:05.740Z,4.90
2023-02-13T04:38:32.445Z,4.90
2023-02-13T04:40:59.454Z,4.90
2023-02-13T04:43:26.343Z,4.90
2023-02-13T04:45:53.054Z,4.80
2023-02-13T04:48:19.775Z,4.80
2023-02-13T04:50:47.810Z,4.80
2023-02-13T04:53:14.463Z,4.70
2023-02-13T04:55:41.270Z,4.60
2023-02-13T04:58:08.024Z,4.60
2023-02-13T05:00:34.683Z,4.60
2023-02-13T05:03:05.311Z,4.70
2023-02-13T05:05:32.047Z,4.50
2023-02-13T05:07:58.757Z,4.50
2023-02-13T05:10:25.463Z,4.40
2023-02-13T05:12:52.196Z,4.40
2023-02-13T05:15:18.975Z,4.30
2023-02-13T05:17:46.213Z,4.20
2023-02-13T05:20:13.952Z,4.20
2023-02-13T05:23:03.642Z,4.20
2023-02-13T05:25:30.499Z,4.20
2023-02-13T05:27:57.256Z,4.10
2023-02-13T05:30:24.047Z,4.10
2023-02-13T05:32:55.011Z,4.00
2023-02-13T05:35:25.588Z,4.00
2023-02-13T05:37:52.407Z,4.00
2023-02-13T05:40:19.352Z,3.90
2023-02-13T05:42:46.287Z,3.80
2023-02-13T05:45:13.122Z,3.80
2023-02-13T05:47:39.925Z,3.80
2023-02-13T05:50:07.431Z,3.80
2023-02-13T05:52:34.150Z,3.80
2023-02-13T05:55:00.895Z,3.70
2023-02-13T05:57:27.562Z,3.70
2023-02-13T05:59:54.266Z,3.60
2023-02-13T06:02:20.973Z,3.50
2023-02-13T06:04:47.706Z,3.50
2023-02-13T06:07:14.369Z,3.50
2023-02-13T06:09:41.165Z,3.50
2023-02-13T06:12:07.907Z,3.50
2023-02-13T06:14:34.627Z,3.40
2023-02-13T06:17:01.754Z,3.40
2023-02-13T06:19:28.492Z,3.40
2023-02-13T06:21:55.364Z,3.40
2023-02-13T06:24:22.084Z,3.40
2023-02-13T06:26:48.922Z,3.40
2023-02-13T06:29:15.631Z,3.40
2023-02-13T06:31:42.307Z,3.30
2023-02-13T06:34:09.271Z,3.30
2023-02-13T06:36:37.704Z,3.30
2023-02-13T06:39:04.743Z,3.30
2023-02-13T06:41:31.458Z,3.30
2023-02-13T06:43:58.178Z,3.30
2023-02-13T06:46:24.896Z,3.30
2023-02-13T06:48:51.594Z,3.20
2023-02-13T06:51:18.315Z,3.20
2023-02-13T06:53:45.006Z,3.20
2023-02-13T06:56:11.687Z,3.20
2023-02-13T06:58:40.050Z,3.10
2023-02-13T07:01:07.100Z,3.20
2023-02-13T07:03:33.847Z,3.10
2023-02-13T07:06:00.563Z,3.10
2023-02-13T07:08:27.567Z,3.10
2023-02-13T07:10:54.466Z,3.10
2023-02-13T07:13:21.162Z,3.10
2023-02-13T07:15:47.943Z,3.10
2023-02-13T07:18:14.710Z,3.10
2023-02-13T07:20:41.423Z,3.10
2023-02-13T07:23:08.230Z,3.10
2023-02-13T07:25:35.169Z,3.00
2023-02-13T07:28:03.663Z,3.10
2023-02-13T07:30:31.439Z,3.10
2023-02-13T07:33:00.467Z,3.20
2023-02-13T07:35:27.253Z,3.10
2023-02-13T07:37:55.098Z,3.10
2023-02-13T07:40:21.953Z,3.10
2023-02-13T07:42:48.727Z,3.00
2023-02-13T07:45:16.096Z,3.00
2023-02-13T07:47:43.004Z,3.00
2023-02-13T07:50:10.095Z,2.90
2023-02-13T07:52:39.927Z,2.80
2023-02-13T07:55:07.075Z,2.80
2023-02-13T07:57:33.966Z,2.90
2023-02-13T08:00:00.788Z,3.00
2023-02-13T08:02:27.487Z,3.00
2023-02-13T08:04:54.391Z,3.10
2023-02-13T08:07:21.270Z,3.10
2023-02-13T08:10:06.732Z,3.10
2023-02-13T08:12:34.158Z,3.10
2023-02-13T08:15:00.916Z,3.10
2023-02-13T08:17:27.645Z,3.10
2023-02-13T08:19:55.029Z,3.20
2023-02-13T08:22:21.716Z,3.30
2023-02-13T08:24:48.423Z,3.30
2023-02-13T08:27:15.384Z,3.40
2023-02-13T08:29:42.094Z,3.40
2023-02-13T08:32:09.197Z,3.50
2023-02-13T08:34:35.945Z,3.60
2023-02-13T08:37:09.437Z,3.60
2023-02-13T08:39:36.195Z,3.70
2023-02-13T08:42:02.970Z,3.90
2023-02-13T08:44:29.727Z,4.00
2023-02-13T08:46:56.594Z,4.10
2023-02-13T08:49:23.548Z,4.20
2023-02-13T08:51:50.643Z,4.30
2023-02-13T08:54:17.407Z,4.50
2023-02-13T08:56:44.126Z,4.60
2023-02-13T08:59:10.929Z,4.90
2023-02-13T09:01:37.742Z,5.20
2023-02-13T09:04:04.589Z,5.40
2023-02-13T09:06:31.291Z,5.50
2023-02-13T09:08:58.246Z,5.60
2023-02-13T09:11:25.098Z,5.80
2023-02-13T09:13:54.848Z,6.10
2023-02-13T09:16:21.723Z,6.40
2023-02-13T09:18:49.376Z,6.70
2023-02-13T09:21:16.195Z,7.00
2023-02-13T09:23:42.973Z,7.20
2023-02-13T09:26:11.278Z,7.60
2023-02-13T09:28:38.162Z,7.70
2023-02-13T09:31:18.476Z,7.60
2023-02-13T09:33:45.808Z,7.50
2023-02-13T09:36:19.259Z,7.50
2023-02-13T09:38:47.389Z,7.40
2023-02-13T09:41:23.127Z,7.30
2023-02-13T09:43:50.992Z,7.30
2023-02-13T09:46:23.817Z,7.30
2023-02-13T09:48:52.086Z,7.30
2023-02-13T09:51:20.153Z,7.30
2023-02-13T09:54:01.091Z,7.30
2023-02-13T09:56:34.071Z,7.40
2023-02-13T09:59:03.659Z,7.40
2023-02-13T10:01:50.771Z,7.40
2023-02-13T10:04:31.813Z,7.50
2023-02-13T10:07:07.937Z,7.50
2023-02-13T10:09:53.414Z,7.50
2023-02-13T10:12:20.103Z,7.50
2023-02-13T10:15:02.309Z,7.60
2023-02-13T10:17:29.069Z,7.70
2023-02-13T10:19:59.254Z,7.70
2023-02-13T10:22:36.179Z,7.80
2023-02-13T10:25:18.210Z,7.80
2023-02-13T10:28:06.109Z,7.80
2023-02-13T10:30:36.872Z,7.80
2023-02-13T10:33:21.104Z,7.90
2023-02-13T10:35:50.681Z,7.90
2023-02-13T10:38:20.475Z,8.00
2023-02-13T10:41:24.351Z,8.10
2023-02-13T10:44:23.291Z,8.10
2023-02-13T10:47:31.858Z,8.20
2023-02-13T10:50:34.010Z,8.30
2023-02-13T10:53:26.179Z,8.30
2023-02-13T10:56:17.483Z,8.30
2023-02-13T10:58:54.112Z,8.40
2023-02-13T11:01:41.646Z,8.40
2023-02-13T11:04:10.499Z,8.50
2023-02-13T11:06:38.644Z,8.50
2023-02-13T11:09:07.228Z,8.60
2023-02-13T11:11:36.480Z,8.60
2023-02-13T11:14:11.768Z,8.60
2023-02-13T11:16:58.921Z,8.70
2023-02-13T11:19:39.992Z,8.70
2023-02-13T11:22:12.747Z,8.80
2023-02-13T11:24:50.055Z,8.80
2023-02-13T11:27:16.924Z,8.80
2023-02-13T11:29:57.298Z,8.90
2023-02-13T11:32:25.758Z,8.90
2023-02-13T11:34:54.714Z,8.90
2023-02-13T11:37:26.660Z,8.90
2023-02-13T11:39:55.319Z,9.00
2023-02-13T11:42:30.617Z,9.10
2023-02-13T11:45:23.445Z,9.20
2023-02-13T11:47:50.178Z,9.20
2023-02-13T11:50:34.924Z,9.30
2023-02-13T11:53:03.231Z,9.30
2023-02-13T11:55:30.087Z,9.30
2023-02-13T11:58:24.068Z,9.40
2023-02-13T12:00:51.042Z,9.50
2023-02-13T12:03:26.409Z,9.50
2023-02-13T12:06:20.880Z,9.60
2023-02-13T12:08:48.297Z,9.60
2023-02-13T12:11:49.671Z,9.60
2023-02-13T12:14:24.860Z,9.60
2023-02-13T12:17:08.670Z,9.70
2023-02-13T12:19:46.577Z,9.70
2023-02-13T12:22:15.586Z,9.70
2023-02-13T12:25:04.830Z,9.70
2023-02-13T12:27:50.420Z,9.80
2023-02-13T12:30:40.787Z,9.80
2023-02-13T12:33:30.556Z,9.90
2023-02-13T12:36:06.358Z,9.90
2023-02-13T12:38:50.582Z,9.90
2023-02-13T12:41:17.229Z,9.90
2023-02-13T12:44:17.672Z,9.90
2023-02-13T12:46:52.940Z,10.00
2023-02-13T12:49:31.830Z,10.00
2023-02-13T12:52:10.482Z,10.00
2023-02-13T12:55:04.780Z,10.00
2023-02-13T12:57:53.261Z,10.00
2023-02-13T13:00:28.925Z,9.90
2023-02-13T13:03:21.846Z,10.00
2023-02-13T13:05:58.721Z,10.10
2023-02-13T13:08:49.250Z,10.20
2023-02-13T13:11:18.792Z,10.20
2023-02-13T13:14:01.819Z,10.30
2023-02-13T13:16:43.000Z,10.40
2023-02-13T13:19:25.366Z,10.50
2023-02-13T13:22:10.638Z,10.60
2023-02-13T13:24:55.927Z,10.70
2023-02-13T13:27:34.705Z,10.60
2023-02-13T13:30:22.673Z,10.60
2023-02-13T13:32:52.428Z,10.60
2023-02-13T13:35:19.910Z,10.60
2023-02-13T13:38:02.686Z,10.60
2023-02-13T13:40:32.419Z,10.60
2023-02-13T13:43:18.601Z,10.70
2023-02-13T13:46:03.794Z,10.80
2023-02-13T13:48:59.010Z,10.90
2023-02-13T13:51:25.772Z,10.90
2023-02-13T13:54:07.628Z,11.00
2023-02-13T13:57:03.883Z,11.00
2023-02-13T13:59:33.756Z,11.10
2023-02-13T14:02:20.474Z,11.10
2023-02-13T14:05:17.732Z,11.10
2023-02-13T14:07:44.669Z,11.10
2023-02-13T14:10:26.682Z,11.20
2023-02-13T14:12:56.347Z,11.20
2023-02-13T14:15:38.036Z,11.20
2023-02-13T14:18:08.021Z,11.20
2023-02-13T14:20:37.870Z,11.20
2023-02-13T14:23:08.917Z,11.30
2023-02-13T14:25:35.721Z,11.30
2023-02-13T14:28:03.761Z,11.30
2023-02-13T14:30:34.109Z,11.40
2023-02-13T14:33:02.813Z,11.40
2023-02-13T14:35:31.265Z,11.40
2023-02-13T14:37:59.537Z,11.40
2023-02-13T14:40:49.792Z,11.40
2023-02-13T14:43:20.521Z,11.50
2023-02-13T14:45:59.578Z,11.50
2023-02-13T14:48:51.468Z,11.50
2023-02-13T14:51:28.581Z,11.50
2023-02-13T14:53:58.882Z,11.60
2023-02-13T14:56:25.627Z,11.60
2023-02-13T14:59:06.884Z,11.60
2023-02-13T15:01:35.152Z,11.70
2023-02-13T15:04:20.691Z,11.70
2023-02-13T15:06:47.470Z,11.70
2023-02-13T15:09:32.383Z,11.80
2023-02-13T15:11:59.282Z,11.90
2023-02-13T15:14:32.057Z,12.00
2023-02-13T15:17:06.076Z,12.20
2023-02-13T15:19:33.685Z,12.30
2023-02-13T15:22:01.478Z,12.40
2023-02-13T15:24:32.028Z,12.60
2023-02-13T15:27:01.452Z,12.90
2023-02-13T15:29:37.903Z,13.20
2023-02-13T15:32:21.674Z,13.50
2023-02-13T15:34:48.773Z,14.00
2023-02-13T15:37:27.435Z,14.50
2023-02-13T15:39:54.087Z,15.00
2023-02-13T15:42:20.861Z,15.50
2023-02-13T15:44:49.050Z,15.90
2023-02-13T15:47:26.460Z,16.20
2023-02-13T15:49:53.404Z,16.30
2023-02-13T15:52:32.772Z,16.60
2023-02-13T15:54:59.672Z,16.90
2023-02-13T15:57:26.963Z,17.00
2023-02-13T15:59:54.937Z,17.20
2023-02-13T16:02:40.656Z,17.30
2023-02-13T16:05:07.539Z,17.30
2023-02-13T16:07:57.622Z,17.40
2023-02-13T16:10:34.752Z,17.30
2023-02-13T16:13:05.994Z,16.60
2023-02-13T16:15:34.397Z,15.80
2023-02-13T16:18:01.189Z,15.10
2023-02-13T16:20:28.689Z,14.60
2023-02-13T16:23:00.149Z,14.30
2023-02-13T16:25:32.943Z,14.00
2023-02-13T16:28:01.529Z,13.70
2023-02-13T16:30:35.411Z,13.40
2023-02-13T16:33:17.180Z,13.10
2023-02-13T16:35:50.850Z,12.90
2023-02-13T16:38:24.666Z,12.70
2023-02-13T16:40:51.286Z,12.50
2023-02-13T16:43:39.828Z,12.20
2023-02-13T16:46:13.483Z,12.00
2023-02-13T16:48:40.291Z,11.90
2023-02-13T16:51:07.104Z,11.70
2023-02-13T16:53:34.788Z,11.60
2023-02-13T16:56:02.882Z,11.50
2023-02-13T16:58:29.601Z,11.40
2023-02-13T17:00:56.601Z,11.30
2023-02-13T17:03:23.476Z,11.10
2023-02-13T17:05:50.159Z,11.00
2023-02-13T17:08:16.918Z,10.80
2023-02-13T17:10:43.901Z,10.70
2023-02-13T17:13:11.568Z,10.60
2023-02-13T17:15:38.480Z,10.50
2023-02-13T17:18:05.232Z,10.40
2023-02-13T17:20:33.422Z,10.30
2023-02-13T17:23:01.564Z,10.10
2023-02-13T17:25:30.201Z,10.10
2023-02-13T17:27:58.825Z,10.00
2023-02-13T17:30:27.592Z,9.90
2023-02-13T17:33:00.023Z,9.80
2023-02-13T17:35:26.762Z,9.70
2023-02-13T17:37:53.543Z,9.70
2023-02-13T17:40:21.959Z,9.60
2023-02-13T17:42:51.790Z,9.60
2023-02-13T17:45:19.664Z,9.50
2023-02-13T17:47:46.408Z,9.50
2023-02-13T17:50:13.652Z,9.40
2023-02-13T17:52:40.584Z,9.40
2023-02-13T17:55:24.534Z,9.30
2023-02-13T17:57:51.793Z,9.20
2023-02-13T18:00:20.372Z,9.20
2023-02-13T18:02:50.610Z,9.10
2023-02-13T18:05:17.952Z,9.00
2023-02-13T18:07:45.051Z,8.90
2023-02-13T18:10:19.747Z,8.90
2023-02-13T18:12:46.643Z,8.90
2023-02-13T18:15:13.370Z,8.90
2023-02-13T18:17:40.492Z,8.90
2023-02-13T18:20:07.918Z,8.80
2023-02-13T18:22:34.625Z,8.70
2023-02-13T18:25:02.110Z,8.70
2023-02-13T18:27:28.857Z,8.60
2023-02-13T18:29:56.254Z,8.60
2023-02-13T18:32:23.107Z,8.50
2023-02-13T18:34:50.191Z,8.40
2023-02-13T18:37:18.039Z,8.40
2023-02-13T18:39:44.741Z,8.40
2023-02-13T18:42:13.146Z,8.30
2023-02-13T18:44:40.626Z,8.30
2023-02-13T18:47:07.548Z,8.20
2023-02-13T18:49:34.252Z,8.20
2023-02-13T18:52:02.257Z,8.10
2023-02-13T18:54:29.167Z,8.10
2023-02-13T18:56:55.877Z,8.00
2023-02-13T18:59:23.218Z,8.00
2023-02-13T19:01:50.331Z,8.00
2023-02-13T19:04:17.033Z,7.90
2023-02-13T19:06:43.857Z,7.90
2023-02-13T19:09:10.721Z,7.80
2023-02-13T19:11:38.876Z,7.80
2023-02-13T19:14:05.713Z,7.70
2023-02-13T19:16:33.173Z,7.60
2023-02-13T19:19:02.595Z,7.60
2023-02-13T19:21:31.080Z,7.60
2023-02-13T19:23:57.872Z,7.60
2023-02-13T19:26:25.758Z,7.60
2023-02-13T19:28:52.650Z,7.60
2023-02-13T19:31:23.596Z,7.50
2023-02-13T19:33:50.545Z,7.50
2023-02-13T19:36:19.966Z,7.50
2023-02-13T19:38:47.058Z,7.50
2023-02-13T19:41:15.595Z,7.40
2023-02-13T19:43:42.298Z,7.20
2023-02-13T19:46:10.409Z,7.30
2023-02-13T19:48:37.505Z,7.20
2023-02-13T19:51:11.681Z,7.10
2023-02-13T19:53:38.671Z,7.10
2023-02-13T19:56:06.258Z,7.00
2023-02-13T19:58:33.183Z,7.00
2023-02-13T20:01:10.094Z,7.00
2023-02-13T20:03:36.865Z,7.00
2023-02-13T20:06:08.929Z,6.90
2023-02-13T20:08:35.774Z,6.90
2023-02-13T20:11:02.775Z,6.90
2023-02-13T20:13:29.614Z,6.80
2023-02-13T20:15:56.408Z,6.70
2023-02-13T20:18:23.297Z,6.70
2023-02-13T20:20:51.687Z,6.70
2023-02-13T20:23:18.620Z,6.70
2023-02-13T20:25:45.397Z,6.70
2023-02-13T20:28:12.396Z,6.70
2023-02-13T20:30:42.853Z,6.70
2023-02-13T20:33:09.892Z,6.60
2023-02-13T20:35:36.806Z,6.60
2023-02-13T20:38:04.111Z,6.50
2023-02-13T20:40:30.911Z,6.40
2023-02-13T20:43:01.875Z,6.40
2023-02-13T20:45:28.681Z,6.40
2023-02-13T20:47:55.523Z,6.40
2023-02-13T20:50:22.378Z,6.40
2023-02-13T20:52:49.125Z,6.40
2023-02-13T20:55:15.952Z,6.40
2023-02-13T20:57:45.279Z,6.40
2023-02-13T21:00:13.251Z,6.40
2023-02-13T21:02:39.984Z,6.30
2023-02-13T21:05:06.992Z,6.30
2023-02-13T21:07:33.792Z,6.20
2023-02-13T21:10:00.492Z,6.10
2023-02-13T21:12:27.430Z,6.00
2023-02-13T21:14:54.229Z,5.90
2023-02-13T21:17:21.055Z,5.90
2023-02-13T21:19:48.015Z,5.90
2023-02-13T21:22:14.922Z,5.90
2023-02-13T21:24:42.673Z,5.90
2023-02-13T21:27:10.323Z,5.90
2023-02-13T21:29:38.177Z,5.90
2023-02-13T21:32:05.103Z,5.90
2023-02-13T21:34:31.920Z,5.90
2023-02-13T21:36:58.654Z,6.00
2023-02-13T21:39:25.659Z,6.00
2023-02-13T21:41:52.478Z,6.10
2023-02-13T21:44:19.252Z,6.20
2023-02-13T21:46:46.287Z,6.10
2023-02-13T21:49:15.350Z,6.20
2023-02-13T21:51:42.269Z,6.30
2023-02-13T21:54:09.530Z,6.30
2023-02-13T21:56:38.012Z,6.30
2023-02-13T21:59:05.253Z,6.30
2023-02-13T22:01:38.630Z,6.30
2023-02-13T22:04:06.748Z,6.30
2023-02-13T22:06:34.811Z,6.30
2023-02-13T22:09:09.515Z,6.30
2023-02-13T22:11:36.261Z,6.30
2023-02-13T22:14:04.223Z,6.20
2023-02-13T22:16:33.980Z,6.10
2023-02-13T22:19:00.810Z,6.00
2023-02-13T22:21:28.739Z,5.90
2023-02-13T22:23:55.634Z,5.90
2023-02-13T22:26:25.549Z,5.80
2023-02-13T22:28:52.632Z,5.70
2023-02-13T22:31:19.755Z,5.70
2023-02-13T22:33:52.373Z,5.70
2023-02-13T22:36:25.322Z,5.70
2023-02-13T22:38:56.313Z,5.80
2023-02-13T22:41:24.205Z,5.70
2023-02-13T22:43:51.377Z,5.60
2023-02-13T22:46:20.472Z,5.40
2023-02-13T22:48:52.363Z,5.30
2023-02-13T22:51:26.715Z,5.20
2023-02-13T22:53:54.496Z,5.20
2023-02-13T22:56:24.450Z,5.20
2023-02-13T22:58:51.350Z,5.10
2023-02-13T23:01:20.216Z,5.10
2023-02-13T23:03:47.266Z,5.00
2023-02-13T23:06:18.010Z,5.00
2023-02-13T23:08:44.819Z,4.90
2023-02-13T23:11:34.255Z,4.80
2023-02-13T23:14:01.399Z,4.70
2023-02-13T23:16:54.587Z,4.60
2023-02-13T23:19:22.042Z,4.60
2023-02-13T23:21:49.044Z,4.60
2023-02-13T23:24:15.955Z,4.50
2023-02-13T23:26:42.847Z,4.50
2023-02-13T23:29:09.659Z,4.60
2023-02-13T23:31:36.484Z,4.60
2023-02-13T23:34:03.429Z,4.50
2023-02-13T23:36:30.112Z,4.50
2023-02-13T23:38:56.812Z,4.50
2023-02-13T23:41:23.475Z,4.50
2023-02-13T23:43:50.165Z,4.50
2023-02-13T23:46:16.942Z,4.50
2023-02-13T23:48:43.638Z,4.40
2023-02-13T23:51:10.561Z,4.40
2023-02-13T23:53:37.482Z,4.40
2023-02-13T23:56:05.072Z,4.40
2023-02-13T23:58:31.872Z,4.30
